Date,TemperatureHighF,TemperatureAvgF,TemperatureLowF,DewpointHighF,DewpointAvgF,DewpointLowF,HumidityHigh,HumidityAvg,HumidityLow,PressureMaxIn,PressureMinIn,WindSpeedMaxMPH,WindSpeedAvgMPH,GustSpeedMaxMPH,PrecipitationSumIn
2013-2-1,58.8,46.8,45.0,47.0,27.9,-99.9,98,65,59,30.18,30.09,22,-104,23,0.00
2013-2-2,56.7,48.1,44.7,51.0,46.9,45.0,100,96,81,30.26,30.18,18,6,19,0.00
2013-2-3,53.3,48.3,43.4,48.0,44.5,40.0,99,86,75,30.22,30.11,14,4,16,0.00
2013-2-4,49.7,44.8,42.4,50.0,44.7,42.0,100,100,86,30.14,30.04,16,5,17,0.01
2013-2-5,51.6,45.7,40.7,48.0,43.6,37.0,100,93,67,30.12,30.04,22,8,29,0.01
2013-2-6,54.9,46.7,43.5,47.0,42.8,39.0,98,87,74,30.16,30.09,20,8,24,0.00
2013-2-7,49.6,44.9,40.0,48.0,43.0,39.0,100,93,74,30.14,29.95,18,8,22,0.14
2013-2-8,50.2,44.0,37.9,43.0,37.4,25.0,99,80,42,29.98,29.90,17,8,25,0.08
2013-2-9,53.3,47.8,44.0,40.0,29.1,21.0,86,49,35,30.05,29.96,16,6,24,0.00
2013-2-10,54.3,44.1,41.3,43.0,26.6,-99.9,93,64,42,30.08,30.00,14,-79,15,0.00
2013-2-11,58.4,50.2,44.1,48.0,35.2,24.0,100,61,34,30.18,30.04,18,11,23,0.00
2013-2-12,54.9,47.3,42.2,47.0,42.6,36.0,100,85,55,30.32,30.18,16,6,17,0.01
2013-2-13,52.4,46.9,42.1,50.0,43.3,34.0,100,89,50,30.30,30.18,17,6,18,0.00
2013-2-14,63.5,54.6,43.9,46.0,44.2,42.0,100,70,51,30.21,30.14,13,7,16,0.00
2013-2-15,63.6,58.6,54.1,44.0,39.9,36.0,63,50,43,30.22,30.16,25,13,31,0.00
2013-2-16,63.1,56.4,50.9,50.0,43.9,39.0,76,64,46,30.19,30.00,28,11,30,0.00
2013-2-17,56.9,50.3,43.8,47.0,42.4,34.0,96,75,54,30.01,29.93,16,6,17,0.00
2013-2-18,48.6,43.9,40.9,42.0,40.4,37.0,100,87,75,29.99,29.91,24,14,28,0.00
2013-2-19,44.0,41.0,37.8,43.0,37.8,32.0,100,89,70,29.93,29.71,25,10,30,0.05
2013-2-20,55.7,46.4,37.4,43.0,35.6,29.0,82,67,49,30.03,29.82,12,4,16,0.00
2013-2-21,56.7,48.1,40.9,43.0,36.5,28.0,85,65,40,30.14,30.01,16,5,20,0.00
2013-2-22,54.7,48.5,44.5,46.0,41.9,37.0,94,78,64,30.22,30.14,19,7,25,0.00
2013-2-23,54.5,48.0,42.6,46.0,36.2,26.0,99,66,42,30.22,30.13,26,8,28,0.00
2013-2-24,56.5,49.0,43.6,44.0,30.6,21.0,99,52,30,30.21,30.14,20,11,26,0.00
2013-2-25,58.3,49.3,42.5,48.0,43.2,36.0,100,81,58,30.23,30.14,15,5,16,0.00
2013-2-26,59.5,51.8,41.5,45.0,33.3,24.0,86,52,27,30.18,30.11,23,9,27,0.00
2013-2-27,61.3,53.2,47.0,48.0,40.9,28.0,84,64,34,30.32,30.17,18,5,19,0.00
2013-2-28,60.4,53.3,46.5,53.0,48.9,44.0,98,85,74,30.41,30.33,17,4,18,0.00